Time;durP1;ratioP1;P1;durP2;ratioP2;P2;SDS_P1;SDS_P2;PMS_P1;PMS_P2;Temp;Humidity;BMP_temperature;BMP_pressure;BME280_temperature;BME280_humidity;BME280_pressure;Samples;Min_cycle;Max_cycle;Signal;HPM_P1;HPM_P2
2022/01/27 00:05:10;;;;;;;10.65;6.70;;;;;;;;;;5012461;28;20088;-70
2022/01/27 00:07:37;;;;;;;11.43;8.20;;;;;;;;;;5013691;28;20037;-70
2022/01/27 00:10:27;;;;;;;9.15;6.18;;;;;;;;;;5015126;28;20516;-70
2022/01/27 00:12:55;;;;;;;10.68;7.43;;;;;;;;;;5015257;28;20038;-70
2022/01/27 00:15:28;;;;;;;11.27;6.07;;;;;;;;;;5014360;28;20057;-70
2022/01/27 00:18:01;;;;;;;12.43;9.38;;;;;;;;;;5014124;28;20096;-71
2022/01/27 00:20:28;;;;;;;12.45;7.03;;;;;;;;;;5014592;28;20072;-70
2022/01/27 00:22:54;;;;;;;11.73;7.75;;;;;;;;;;5017666;28;20026;-70
2022/01/27 00:25:20;;;;;;;11.40;7.80;;;;;;;;;;5018667;28;20117;-70
2022/01/27 00:27:47;;;;;;;13.63;7.07;;;;;;;;;;5018314;28;20041;-70
2022/01/27 00:30:14;;;;;;;11.38;6.10;;;;;;;;;;5019162;28;20030;-70
2022/01/27 00:32:40;;;;;;;11.52;6.80;;;;;;;;;;5018257;28;20113;-70
2022/01/27 00:35:07;;;;;;;11.10;6.82;;;;;;;;;;5018363;28;20500;-70
2022/01/27 00:37:34;;;;;;;13.10;8.25;;;;;;;;;;5018524;28;20046;-70
2022/01/27 00:40:00;;;;;;;10.68;7.10;;;;;;;;;;5018342;28;20038;-70
2022/01/27 00:42:28;;;;;;;11.05;6.82;;;;;;;;;;5018056;28;20037;-70
2022/01/27 00:44:55;;;;;;;13.10;7.20;;;;;;;;;;5018757;28;20052;-70
2022/01/27 00:47:21;;;;;;;11.45;7.15;;;;;;;;;;5018527;28;20046;-70
2022/01/27 00:49:47;;;;;;;11.95;7.25;;;;;;;;;;5017778;28;20117;-70
2022/01/27 00:52:24;;;;;;;11.98;7.30;;;;;;;;;;5017922;28;20128;-70
2022/01/27 00:54:52;;;;;;;11.10;7.78;;;;;;;;;;5018682;28;20563;-70
2022/01/27 00:57:36;;;;;;;12.05;8.15;;;;;;;;;;5017776;28;20034;-70
2022/01/27 01:00:04;;;;;;;12.85;8.13;;;;;;;;;;5017689;28;20034;-70
2022/01/27 01:02:57;;;;;;;10.02;6.90;;;;;;;;;;5017930;28;20034;-70
2022/01/27 01:09:03;;;;;;;12.27;8.23;;;;;;;;;;5018020;28;20034;-70
2022/01/27 01:11:23;;;;;;;18.35;8.50;;;;;;;;;;5017703;28;20041;-70
2022/01/27 01:30:09;;;;;;;16.00;11.05;;;;;;;;;;5016125;28;20107;-70
2022/01/27 01:32:53;;;;;;;14.48;9.00;;;;;;;;;;5015838;28;20161;-70
2022/01/27 01:36:12;;;;;;;12.68;8.48;;;;;;;;;;5016075;28;20034;-70
2022/01/27 01:38:09;;;;;;;15.30;8.77;;;;;;;;;;5015791;28;20042;-70
2022/01/27 01:40:35;;;;;;;12.55;8.38;;;;;;;;;;5016801;28;20092;-70
2022/01/27 01:43:01;;;;;;;14.38;10.07;;;;;;;;;;5016042;28;20066;-70
2022/01/27 01:45:33;;;;;;;15.07;11.57;;;;;;;;;;5016596;28;20129;-70
2022/01/27 01:47:59;;;;;;;16.55;11.57;;;;;;;;;;5016429;28;20073;-70
2022/01/27 01:50:25;;;;;;;13.50;9.07;;;;;;;;;;5015935;28;20473;-70
2022/01/27 01:52:52;;;;;;;14.75;8.70;;;;;;;;;;5016250;28;20113;-70
2022/01/27 01:55:19;;;;;;;17.50;8.85;;;;;;;;;;5015964;28;20037;-70
2022/01/27 01:57:45;;;;;;;15.32;8.38;;;;;;;;;;5015883;28;20041;-70
2022/01/27 02:00:12;;;;;;;13.68;8.65;;;;;;;;;;5016252;28;20050;-70
2022/01/27 02:02:38;;;;;;;12.57;8.38;;;;;;;;;;5016142;28;20033;-70
2022/01/27 02:05:06;;;;;;;16.00;8.98;;;;;;;;;;5015565;28;20496;-70
2022/01/27 02:17:59;;;;;;;15.27;9.05;;;;;;;;;;5016111;28;20337;-70
2022/01/27 02:20:25;;;;;;;14.70;9.90;;;;;;;;;;5016676;28;20478;-70
2022/01/27 02:22:51;;;;;;;13.57;9.07;;;;;;;;;;5016240;28;20034;-71
2022/01/27 02:25:18;;;;;;;12.30;8.55;;;;;;;;;;5016338;28;20144;-70
2022/01/27 02:27:44;;;;;;;11.65;8.02;;;;;;;;;;5016371;28;20029;-70
2022/01/27 02:30:11;;;;;;;14.20;8.63;;;;;;;;;;5016919;28;20045;-70
2022/01/27 02:32:37;;;;;;;12.40;8.25;;;;;;;;;;5016312;28;20034;-70
2022/01/27 02:35:04;;;;;;;11.50;8.00;;;;;;;;;;5016057;28;20037;-70
2022/01/27 02:37:30;;;;;;;13.65;11.70;;;;;;;;;;5015896;28;20064;-70
2022/01/27 02:39:56;;;;;;;13.98;9.73;;;;;;;;;;5016473;28;20050;-70
2022/01/27 02:42:33;;;;;;;11.65;8.30;;;;;;;;;;5016231;28;20048;-70
2022/01/27 02:45:09;;;;;;;14.75;9.32;;;;;;;;;;5014850;28;20034;-70
2022/01/27 02:47:36;;;;;;;12.57;8.65;;;;;;;;;;5015999;28;20041;-70
2022/01/27 02:50:02;;;;;;;15.07;8.88;;;;;;;;;;5015488;28;20034;-70
2022/01/27 02:52:28;;;;;;;15.02;8.63;;;;;;;;;;5015704;28;20115;-70
2022/01/27 02:54:54;;;;;;;12.90;8.88;;;;;;;;;;5015866;28;20041;-70
2022/01/27 02:57:21;;;;;;;13.60;8.60;;;;;;;;;;5015994;28;20041;-70
2022/01/27 02:59:47;;;;;;;13.90;8.85;;;;;;;;;;5015941;28;20108;-70
2022/01/27 03:02:13;;;;;;;11.23;8.35;;;;;;;;;;5015523;28;20041;-70
2022/01/27 03:04:39;;;;;;;14.75;9.82;;;;;;;;;;5015221;28;20092;-70
2022/01/27 03:07:06;;;;;;;13.95;10.07;;;;;;;;;;5016034;28;20039;-70
2022/01/27 03:09:33;;;;;;;15.02;10.68;;;;;;;;;;5015360;28;20044;-70
2022/01/27 03:12:07;;;;;;;14.63;9.00;;;;;;;;;;5015588;28;20034;-70
2022/01/27 03:14:33;;;;;;;17.05;12.45;;;;;;;;;;5015988;28;20044;-70
2022/01/27 03:17:00;;;;;;;16.13;11.02;;;;;;;;;;5015745;28;20076;-70
2022/01/27 03:19:27;;;;;;;13.90;10.57;;;;;;;;;;5015895;28;20531;-70
2022/01/27 03:21:54;;;;;;;15.93;9.77;;;;;;;;;;5015745;28;20030;-70
2022/01/27 03:24:21;;;;;;;15.05;10.57;;;;;;;;;;5015262;28;20042;-70
2022/01/27 03:26:48;;;;;;;15.75;9.95;;;;;;;;;;5015582;28;20041;-70
2022/01/27 03:29:16;;;;;;;19.02;11.75;;;;;;;;;;5015982;28;20068;-70
2022/01/27 03:31:43;;;;;;;17.73;9.98;;;;;;;;;;5015554;28;20117;-70
2022/01/27 03:34:09;;;;;;;15.50;10.00;;;;;;;;;;5015343;28;20040;-70
2022/01/27 03:36:35;;;;;;;14.32;8.23;;;;;;;;;;5015465;28;20044;-70
2022/01/27 03:39:02;;;;;;;13.05;8.68;;;;;;;;;;5015158;28;20026;-70
2022/01/27 03:41:32;;;;;;;14.48;8.73;;;;;;;;;;5015418;28;20116;-70
2022/01/27 03:43:59;;;;;;;16.50;10.60;;;;;;;;;;5015379;28;20092;-70
2022/01/27 03:46:27;;;;;;;18.90;10.20;;;;;;;;;;5015364;28;20125;-70
2022/01/27 03:48:54;;;;;;;18.77;11.65;;;;;;;;;;5015772;28;20084;-70
2022/01/27 03:51:22;;;;;;;18.17;10.98;;;;;;;;;;5015298;28;20568;-70
2022/01/27 03:53:50;;;;;;;19.92;11.88;;;;;;;;;;5015378;28;20042;-70
2022/01/27 03:56:18;;;;;;;19.02;12.05;;;;;;;;;;5014820;28;20044;-70
2022/01/27 03:58:45;;;;;;;23.27;14.57;;;;;;;;;;5015460;28;20113;-70
2022/01/27 04:01:12;;;;;;;24.73;13.32;;;;;;;;;;5015745;28;20129;-70
2022/01/27 04:03:39;;;;;;;20.02;13.40;;;;;;;;;;5014918;28;20226;-70
2022/01/27 04:06:08;;;;;;;22.10;12.73;;;;;;;;;;5015662;28;20044;-70
2022/01/27 04:08:37;;;;;;;23.35;13.32;;;;;;;;;;5015036;28;20461;-70
2022/01/27 04:11:08;;;;;;;19.70;13.20;;;;;;;;;;5014765;28;20038;-70
2022/01/27 04:13:35;;;;;;;;;;;;;;;;;;5016155;28;20065;-70
2022/01/27 04:16:02;;;;;;;20.92;12.60;;;;;;;;;;5014334;28;19999;-70
2022/01/27 04:18:29;;;;;;;27.40;16.70;;;;;;;;;;5014323;28;20129;-70
2022/01/27 04:20:56;;;;;;;24.88;15.35;;;;;;;;;;5015044;28;20038;-70
2022/01/27 04:23:22;;;;;;;18.70;12.93;;;;;;;;;;5014303;28;20567;-70
2022/01/27 04:25:50;;;;;;;20.85;12.48;;;;;;;;;;5014600;28;20096;-70
2022/01/27 04:28:23;;;;;;;22.30;14.70;;;-0.60;99.90;;;;;;5014579;28;20034;-70
2022/01/27 04:30:49;;;;;;;23.08;14.20;;;-0.50;99.90;;;;;;5014024;28;20477;-70
2022/01/27 04:33:17;;;;;;;24.25;14.63;;;;;;;;;;5014423;28;20034;-70
2022/01/27 04:35:47;;;;;;;20.77;14.45;;;-0.10;99.90;;;;;;5014545;28;20064;-70
2022/01/27 04:45:51;;;;;;;23.55;14.77;;;0.60;99.90;;;;;;5013946;28;20048;-70
2022/01/27 04:48:20;;;;;;;25.35;16.05;;;0.90;99.90;;;;;;5014378;28;20030;-70
2022/01/27 04:50:46;;;;;;;20.02;12.70;;;1.20;99.90;;;;;;5015280;28;20038;-70
2022/01/27 04:53:23;;;;;;;17.48;11.45;;;1.40;99.90;;;;;;5012747;28;20041;-70
2022/01/27 04:55:48;;;;;;;20.50;14.65;;;1.00;99.90;;;;;;5014267;28;20045;-70
2022/01/27 04:58:19;;;;;;;17.17;11.80;;;1.30;99.90;;;;;;5014224;28;20034;-71
2022/01/27 05:00:45;;;;;;;22.00;12.07;;;1.00;99.90;;;;;;5007638;28;20040;-71
2022/01/27 05:03:23;;;;;;;21.20;12.93;;;1.10;99.90;;;;;;4995227;28;20069;-70
2022/01/27 05:05:52;;;;;;;20.35;12.63;;;1.30;99.90;;;;;;5004306;28;20136;-71
2022/01/27 05:08:19;;;;;;;20.50;12.40;;;0.70;99.90;;;;;;5015832;28;20069;-71
2022/01/27 05:10:56;;;;;;;19.60;12.40;;;0.90;99.90;;;;;;5017960;28;20539;-71
2022/01/27 05:13:25;;;;;;;18.65;12.32;;;0.60;99.90;;;;;;5017481;28;20045;-71
2022/01/27 05:15:51;;;;;;;18.92;12.88;;;0.50;99.90;;;;;;5018064;28;20477;-70
2022/01/27 05:18:17;;;;;;;18.60;13.07;;;0.80;99.90;;;;;;5016935;28;20400;-71
2022/01/27 05:20:44;;;;;;;20.33;13.20;;;0.60;99.90;;;;;;5017706;28;20036;-70
2022/01/27 05:23:10;;;;;;;25.83;16.27;;;0.60;99.90;;;;;;5017721;28;20034;-71
2022/01/27 05:25:36;;;;;;;60.85;36.25;;;0.70;99.90;;;;;;5017705;28;20094;-71
2022/01/27 05:28:02;;;;;;;31.58;18.90;;;0.70;99.90;;;;;;5016673;28;20121;-70
2022/01/27 05:30:27;;;;;;;31.60;18.95;;;0.30;99.90;;;;;;5017890;28;20034;-70
2022/01/27 05:32:54;;;;;;;21.17;13.73;;;0.50;99.90;;;;;;5017035;28;20022;-70
2022/01/27 05:35:19;;;;;;;22.77;14.88;;;0.30;99.90;;;;;;5017252;28;20068;-70
2022/01/27 05:37:45;;;;;;;24.90;14.20;;;0.40;99.90;;;;;;5017777;28;20037;-70
2022/01/27 05:40:12;;;;;;;22.33;14.68;;;0.30;99.90;;;;;;5018718;28;20046;-70
2022/01/27 05:42:37;;;;;;;23.92;15.07;;;0.10;99.90;;;;;;5017462;28;20058;-70
2022/01/27 05:45:04;;;;;;;22.10;13.95;;;-0.10;99.90;;;;;;5017756;28;20080;-70
2022/01/27 05:47:30;;;;;;;24.17;13.88;;;0.00;99.90;;;;;;5017675;28;20100;-70
2022/01/27 05:49:56;;;;;;;17.63;11.15;;;0.30;99.90;;;;;;5017750;28;20404;-70
2022/01/27 05:52:22;;;;;;;61.67;23.48;;;0.10;99.90;;;;;;5017392;28;20076;-70
2022/01/27 05:54:48;;;;;;;107.95;37.40;;;0.20;99.90;;;;;;5017617;28;20041;-70
2022/01/27 05:57:14;;;;;;;34.05;19.45;;;0.60;99.90;;;;;;5017421;28;20044;-70
2022/01/27 05:59:40;;;;;;;80.40;33.53;;;0.30;99.90;;;;;;5017554;28;20038;-70
2022/01/27 06:02:06;;;;;;;27.55;15.93;;;0.50;99.90;;;;;;5017192;28;20033;-71
2022/01/27 06:04:32;;;;;;;65.53;26.90;;;0.40;99.90;;;;;;5016951;28;20102;-70
2022/01/27 06:06:58;;;;;;;53.97;23.02;;;0.30;99.90;;;;;;5016761;28;20069;-70
2022/01/27 06:09:24;;;;;;;24.10;14.73;;;0.30;99.90;;;;;;5016894;28;20034;-70
2022/01/27 06:11:50;;;;;;;30.95;18.20;;;0.40;99.90;;;;;;5016613;28;20034;-69
2022/01/27 06:14:17;;;;;;;23.27;13.43;;;0.60;99.90;;;;;;5016508;28;20045;-70
2022/01/27 06:16:46;;;;;;;20.67;12.95;;;0.20;99.90;;;;;;5015170;28;20044;-69
2022/01/27 06:19:13;;;;;;;20.88;11.40;;;0.60;99.90;;;;;;5013080;28;20393;-68
2022/01/27 06:21:40;;;;;;;23.58;12.63;;;0.40;99.90;;;;;;5015570;28;20037;-69
2022/01/27 06:24:06;;;;;;;31.42;17.45;;;0.30;99.90;;;;;;5016356;28;20042;-69
2022/01/27 06:26:32;;;;;;;18.23;12.50;;;0.10;99.90;;;;;;5016391;28;20105;-69
2022/01/27 06:29:00;;;;;;;18.42;11.20;;;0.30;99.90;;;;;;5015677;28;20030;-69
2022/01/27 06:31:26;;;;;;;19.75;10.57;;;0.30;99.90;;;;;;5016594;28;20088;-69
2022/01/27 06:33:52;;;;;;;24.30;15.50;;;0.00;99.90;;;;;;5015848;28;20046;-69
2022/01/27 06:36:19;;;;;;;16.15;10.00;;;0.10;99.90;;;;;;5016484;28;20037;-69
2022/01/27 06:38:46;;;;;;;31.25;19.42;;;;;;;;;;5016181;28;20048;-70
2022/01/27 06:41:12;;;;;;;22.38;12.23;;;-0.30;99.90;;;;;;5014753;28;20165;-69
2022/01/27 06:43:38;;;;;;;19.75;14.02;;;;;;;;;;5016045;28;20124;-69
2022/01/27 06:46:04;;;;;;;27.75;15.43;;;0.00;99.90;;;;;;5016087;28;20030;-69
2022/01/27 06:48:30;;;;;;;17.08;9.05;;;0.00;99.90;;;;;;5015925;28;20038;-69
2022/01/27 06:50:56;;;;;;;23.55;13.18;;;0.00;99.90;;;;;;5016507;28;20064;-69
2022/01/27 06:53:23;;;;;;;20.45;10.10;;;-0.10;99.90;;;;;;5015663;28;20038;-69
2022/01/27 06:55:50;;;;;;;21.67;11.13;;;-0.10;99.90;;;;;;5015929;28;20476;-69
2022/01/27 06:58:15;;;;;;;19.65;11.25;;;-0.40;99.90;;;;;;5015829;28;20034;-69
2022/01/27 07:00:43;;;;;;;23.63;15.18;;;0.00;99.90;;;;;;5016301;28;20350;-71
2022/01/27 07:03:08;;;;;;;29.33;14.68;;;-0.30;99.90;;;;;;5007305;28;21046;-71
2022/01/27 07:05:35;;;;;;;21.10;10.02;;;-0.40;99.90;;;;;;4997628;28;20038;-69
2022/01/27 07:08:01;;;;;;;25.33;12.40;;;-0.10;99.90;;;;;;4995436;28;20494;-71
2022/01/27 07:10:27;;;;;;;32.90;15.80;;;-0.40;99.90;;;;;;5007397;28;20120;-72
2022/01/27 07:12:53;;;;;;;23.52;15.05;;;-0.10;99.90;;;;;;5013901;28;20044;-72
2022/01/27 07:15:19;;;;;;;32.95;20.73;;;-0.50;99.90;;;;;;5004802;28;22254;-70
2022/01/27 07:17:47;;;;;;;20.27;12.68;;;-0.40;99.90;;;;;;4996571;28;20034;-70
2022/01/27 07:20:13;;;;;;;24.45;14.57;;;-0.10;99.90;;;;;;4994129;28;20049;-70
2022/01/27 07:22:39;;;;;;;22.20;13.05;;;0.20;99.90;;;;;;5006922;28;20038;-70
2022/01/27 07:25:07;;;;;;;20.15;12.55;;;0.20;99.90;;;;;;5013781;28;20045;-70
2022/01/27 07:27:34;;;;;;;24.92;15.55;;;;;;;;;;5013193;28;20038;-69
2022/01/27 07:30:00;;;;;;;23.83;13.43;;;0.00;99.90;;;;;;5013538;28;20076;-70
2022/01/27 07:32:26;;;;;;;32.45;17.73;;;0.10;99.90;;;;;;5013821;28;20037;-69
2022/01/27 07:34:52;;;;;;;31.38;20.73;;;0.10;99.90;;;;;;5013332;28;20568;-69
2022/01/27 07:37:19;;;;;;;32.20;20.73;;;;;;;;;;5011556;28;20038;-70
2022/01/27 07:39:46;;;;;;;33.72;21.65;;;;;;;;;;5013698;28;20037;-70
2022/01/27 07:42:12;;;;;;;29.35;19.15;;;0.10;99.90;;;;;;5013646;28;20059;-70
2022/01/27 07:44:37;;;;;;;40.55;25.58;;;0.10;99.90;;;;;;5013408;28;20151;-70
2022/01/27 07:47:04;;;;;;;35.95;23.58;;;;;;;;;;5013239;28;20037;-70
2022/01/27 07:49:30;;;;;;;31.23;20.58;;;-0.10;99.90;;;;;;5013484;28;20073;-70
2022/01/27 07:51:57;;;;;;;33.60;20.35;;;0.00;99.90;;;;;;5013490;28;20099;-70
2022/01/27 07:54:23;;;;;;;33.85;20.30;;;0.30;99.90;;;;;;5008126;28;20042;-70
2022/01/27 07:56:49;;;;;;;36.85;21.25;;;0.70;99.90;;;;;;4990886;28;20038;-69
2022/01/27 07:59:15;;;;;;;32.88;20.08;;;0.70;99.90;;;;;;4996243;28;20081;-69
2022/01/27 08:01:41;;;;;;;38.00;21.42;;;0.80;99.90;;;;;;5010962;28;20489;-69
2022/01/27 08:04:07;;;;;;;41.75;25.17;;;0.40;99.90;;;;;;5010620;28;20104;-69
2022/01/27 08:06:34;;;;;;;53.35;33.33;;;0.50;99.90;;;;;;5011299;28;20034;-69
2022/01/27 08:08:59;;;;;;;47.90;29.67;;;0.70;99.90;;;;;;5010841;28;20580;-69
2022/01/27 08:11:25;;;;;;;50.03;30.02;;;0.70;99.90;;;;;;5010989;28;20038;-69
2022/01/27 08:13:51;;;;;;;54.90;29.08;;;0.80;99.90;;;;;;5010772;28;20042;-70
2022/01/27 08:16:17;;;;;;;42.17;21.63;;;1.10;99.90;;;;;;5011170;28;20076;-69
2022/01/27 08:18:43;;;;;;;34.45;18.67;;;1.10;99.90;;;;;;5010516;28;20165;-69
2022/01/27 08:21:09;;;;;;;30.55;16.60;;;1.40;99.90;;;;;;5009022;28;20038;-69
2022/01/27 08:23:35;;;;;;;30.17;18.70;;;1.50;99.90;;;;;;5010608;28;20073;-70
2022/01/27 08:26:09;;;;;;;38.10;22.23;;;1.70;99.90;;;;;;5010732;28;20493;-69
2022/01/27 08:28:43;;;;;;;42.78;25.52;;;;;;;;;;5011339;28;20046;-69
2022/01/27 08:31:09;;;;;;;30.45;18.27;;;1.70;99.90;;;;;;4991750;28;20042;-70
2022/01/27 08:33:38;;;;;;;20.00;11.45;;;2.00;99.90;;;;;;4990808;28;20125;-70
2022/01/27 08:36:05;;;;;;;24.55;16.60;;;2.60;99.90;;;;;;4990457;28;20113;-69
2022/01/27 08:38:31;;;;;;;12.18;8.38;;;2.80;99.90;;;;;;5006169;28;20073;-69
2022/01/27 08:40:59;;;;;;;13.05;8.80;;;3.20;99.90;;;;;;5013231;28;20060;-69
2022/01/27 08:43:25;;;;;;;11.10;7.15;;;3.60;99.90;;;;;;5014563;28;20054;-69
2022/01/27 08:45:53;;;;;;;9.75;6.65;;;;;;;;;;5014015;28;20068;-69
2022/01/27 08:48:21;;;;;;;18.58;11.88;;;;;;;;;;4995911;28;20046;-70
2022/01/27 08:50:53;;;;;;;10.10;7.25;;;;;;;;;;5005002;28;20100;-69
2022/01/27 08:53:19;;;;;;;12.13;7.70;;;4.20;99.90;;;;;;5013989;28;20116;-69
2022/01/27 08:55:46;;;;;;;13.07;8.35;;;4.30;99.90;;;;;;5014308;28;20045;-69
2022/01/27 08:58:12;;;;;;;10.93;6.82;;;4.40;99.90;;;;;;5013994;28;20141;-69
2022/01/27 09:00:39;;;;;;;10.43;7.07;;;4.50;99.90;;;;;;5016360;28;20026;-70
2022/01/27 09:03:05;;;;;;;14.18;9.40;;;4.50;99.90;;;;;;5016504;28;20048;-70
2022/01/27 09:05:31;;;;;;;14.55;7.35;;;;;;;;;;5016314;28;20475;-69
2022/01/27 09:07:58;;;;;;;11.57;6.55;;;;;;;;;;5016031;28;20132;-69
2022/01/27 09:10:31;;;;;;;7.70;5.28;;;5.00;99.90;;;;;;5015642;28;20117;-69
2022/01/27 09:13:01;;;;;;;9.43;6.43;;;5.10;99.90;;;;;;5015771;28;20050;-69
2022/01/27 09:15:29;;;;;;;10.63;6.80;;;5.00;99.90;;;;;;5015937;28;20500;-70
2022/01/27 09:17:56;;;;;;;9.43;6.70;;;5.10;99.90;;;;;;5016170;28;20072;-69
2022/01/27 09:20:22;;;;;;;7.10;5.53;;;5.20;99.90;;;;;;5015353;28;20493;-69
2022/01/27 09:22:51;;;;;;;6.97;5.25;;;5.20;99.90;;;;;;5015767;28;20527;-69
2022/01/27 09:25:21;;;;;;;6.95;4.70;;;;;;;;;;5015847;28;20099;-69
2022/01/27 09:27:49;;;;;;;8.23;5.63;;;;;;;;;;5015545;28;20050;-69
2022/01/27 09:30:17;;;;;;;8.60;6.30;;;;;;;;;;5012804;28;20046;-69
2022/01/27 09:32:44;;;;;;;8.02;5.03;;;;;;;;;;5014938;28;20042;-69
2022/01/27 09:35:11;;;;;;;6.82;4.53;;;;;;;;;;5013645;28;20049;-70
2022/01/27 09:37:40;;;;;;;8.48;4.95;;;6.00;97.90;;;;;;5012813;28;20033;-70
2022/01/27 09:40:09;;;;;;;8.38;4.78;;;;;;;;;;5013090;28;20140;-70
2022/01/27 09:42:37;;;;;;;9.27;5.25;;;;;;;;;;5011428;28;20489;-70
2022/01/27 09:45:05;;;;;;;8.75;5.22;;;;;;;;;;5000313;28;20489;-70
2022/01/27 09:47:35;;;;;;;7.97;5.40;;;;;;;;;;4995692;28;20486;-70
2022/01/27 09:50:09;;;;;;;7.90;4.82;;;;;;;;;;5000087;28;20050;-70
2022/01/27 09:52:36;;;;;;;7.68;5.45;;;;;;;;;;4995326;28;20070;-70
2022/01/27 09:55:03;;;;;;;7.85;5.20;;;;;;;;;;4996320;28;20075;-70
2022/01/27 09:57:29;;;;;;;8.07;5.50;;;;;;;;;;4995755;28;20498;-70
2022/01/27 09:59:56;;;;;;;8.43;5.47;;;;;;;;;;5011365;28;20065;-70
2022/01/27 10:02:26;;;;;;;6.45;5.25;;;;;;;;;;5014215;28;20116;-70
2022/01/27 10:04:57;;;;;;;7.53;4.85;;;;;;;;;;5015009;28;20141;-70
2022/01/27 10:07:24;;;;;;;;;;;;;;;;;;5015646;28;20077;-71
2022/01/27 10:10:01;;;;;;;8.43;4.78;;;;;;;;;;5014833;28;20156;-69
2022/01/27 10:12:47;;;;;;;8.60;5.53;;;;;;;;;;5014012;28;20122;-70
2022/01/27 10:15:18;;;;;;;8.73;5.32;;;;;;;;;;5014458;28;20464;-70
2022/01/27 10:18:03;;;;;;;8.70;5.13;;;;;;;;;;5015290;28;20037;-70
2022/01/27 10:20:30;;;;;;;5.93;4.43;;;;;;;;;;5015111;28;20042;-70
2022/01/27 10:23:14;;;;;;;8.80;5.47;;;;;;;;;;5013442;28;20445;-70
2022/01/27 10:25:51;;;;;;;10.93;5.70;;;;;;;;;;5014501;28;20048;-70
2022/01/27 10:28:45;;;;;;;7.43;5.32;;;;;;;;;;5014839;28;20064;-70
2022/01/27 10:31:19;;;;;;;8.10;5.93;;;;;;;;;;5014387;28;20120;-70
2022/01/27 10:33:58;;;;;;;6.95;5.25;;;;;;;;;;5014619;28;20041;-69
2022/01/27 10:36:25;;;;;;;8.93;5.65;;;;;;;;;;5014723;28;20077;-70
2022/01/27 10:39:12;;;;;;;10.38;5.78;;;;;;;;;;5014676;28;20503;-70
2022/01/27 10:41:40;;;;;;;8.02;5.82;;;;;;;;;;5014142;28;20104;-70
2022/01/27 10:44:11;;;;;;;9.32;5.78;;;;;;;;;;5014514;28;20141;-71
2022/01/27 10:46:44;;;;;;;7.95;5.65;;;;;;;;;;5014476;28;20120;-71
2022/01/27 10:49:19;;;;;;;8.77;5.88;;;;;;;;;;4994767;28;20528;-71
2022/01/27 10:51:50;;;;;;;8.05;5.68;;;;;;;;;;4995002;28;20065;-70
2022/01/27 10:54:28;;;;;;;9.02;5.53;;;;;;;;;;4994903;28;20161;-71
2022/01/27 10:56:54;;;;;;;8.13;5.82;;;;;;;;;;4994762;28;20093;-70
2022/01/27 10:59:20;;;;;;;9.10;6.13;;;;;;;;;;4995104;28;20042;-70
2022/01/27 11:01:50;;;;;;;9.52;6.07;;;;;;;;;;4994559;28;20026;-70
2022/01/27 11:04:18;;;;;;;8.15;5.38;;;;;;;;;;5013408;28;20128;-71
2022/01/27 11:06:55;;;;;;;7.93;5.82;;;;;;;;;;5024436;28;20080;-73
2022/01/27 11:09:22;;;;;;;11.13;6.85;;;;;;;;;;5033690;28;20116;-71
2022/01/27 11:11:49;;;;;;;8.90;6.43;;;;;;;;;;5034179;28;20063;-71
2022/01/27 11:14:16;;;;;;;9.70;6.07;;;;;;;;;;5033206;28;20083;-71
2022/01/27 11:16:44;;;;;;;8.48;5.60;;;;;;;;;;5033629;28;20162;-71
2022/01/27 11:19:20;;;;;;;7.45;5.43;;;;;;;;;;5017086;28;20057;-71
2022/01/27 11:21:52;;;;;;;8.82;6.00;;;;;;;;;;5014377;28;20033;-71
2022/01/27 11:24:31;;;;;;;9.55;6.45;;;;;;;;;;5013698;28;20045;-70
2022/01/27 11:26:58;;;;;;;8.73;5.93;;;;;;;;;;5014170;28;20042;-71
2022/01/27 11:29:24;;;;;;;11.70;6.28;;;;;;;;;;5014195;28;20041;-70
2022/01/27 11:31:57;;;;;;;7.53;5.90;;;;;;;;;;5013065;28;20041;-70
2022/01/27 11:34:23;;;;;;;7.82;5.80;;;;;;;;;;5012607;28;20045;-71
2022/01/27 11:37:01;;;;;;;7.85;6.15;;;;;;;;;;5013485;28;20034;-70
2022/01/27 11:39:47;;;;;;;9.25;6.43;;;;;;;;;;5013673;28;20061;-70
2022/01/27 11:42:13;;;;;;;10.43;6.70;;;;;;;;;;5013721;28;20045;-71
2022/01/27 11:44:43;;;;;;;8.93;6.47;;;;;;;;;;5011817;28;20075;-70
2022/01/27 11:47:10;;;;;;;14.45;9.75;;;;;;;;;;5013772;28;20084;-70
2022/01/27 11:49:56;;;;;;;17.15;12.35;;;;;;;;;;5013205;28;20041;-70
2022/01/27 11:52:48;;;;;;;10.88;9.18;;;;;;;;;;5013696;28;20040;-70
2022/01/27 11:55:26;;;;;;;8.65;6.22;;;;;;;;;;5009686;28;20580;-70
2022/01/27 11:57:54;;;;;;;8.13;5.55;;;;;;;;;;5013691;28;20038;-70
2022/01/27 12:00:22;;;;;;;9.48;6.00;;;;;;;;;;5013358;28;20042;-70
2022/01/27 12:02:57;;;;;;;9.60;5.88;;;;;;;;;;5013653;28;20041;-70
2022/01/27 12:05:24;;;;;;;8.27;6.10;;;;;;;;;;5012055;28;20061;-70
2022/01/27 12:08:09;;;;;;;12.02;6.30;;;;;;;;;;5013713;28;20034;-70
2022/01/27 12:10:51;;;;;;;8.60;5.93;;;;;;;;;;5013472;28;20500;-70
2022/01/27 12:13:36;;;;;;;8.63;6.32;;;;;;;;;;5013718;28;20060;-70
2022/01/27 12:19:02;;;;;;;8.73;6.00;;;;;;;;;;5017601;28;20029;-70
2022/01/27 12:21:29;;;;;;;8.80;6.40;;;;;;;;;;5017642;28;20037;-70
2022/01/27 12:24:15;;;;;;;7.22;5.65;;;;;;;;;;5011004;28;20065;-70
2022/01/27 12:26:47;;;;;;;9.57;6.25;;;;;;;;;;5016919;28;20048;-70
2022/01/27 12:29:26;;;;;;;9.38;5.80;;;;;;;;;;5016879;28;20038;-70
2022/01/27 12:31:53;;;;;;;10.05;6.35;;;;;;;;;;5017546;28;20042;-70
2022/01/27 12:34:20;;;;;;;8.27;6.60;;;;;;;;;;5017312;28;20140;-70
2022/01/27 12:36:56;;;;;;;9.68;6.47;;;;;;;;;;5016773;28;20044;-70
2022/01/27 12:39:22;;;;;;;10.40;7.50;;;;;;;;;;5008874;28;20121;-70
2022/01/27 12:41:50;;;;;;;11.40;7.60;;;;;;;;;;4991100;28;20151;-70
2022/01/27 12:44:16;;;;;;;12.15;8.45;;;;;;;;;;4987243;28;20062;-70
2022/01/27 12:47:01;;;;;;;10.43;7.72;;;;;;;;;;5006230;28;20033;-70
2022/01/27 12:49:37;;;;;;;11.27;8.15;;;;;;;;;;5010231;28;20037;-70
2022/01/27 12:52:07;;;;;;;11.32;8.43;;;;;;;;;;5016670;28;20040;-70
2022/01/27 12:54:34;;;;;;;10.38;7.38;;;;;;;;;;5014720;28;20121;-70
2022/01/27 12:57:00;;;;;;;13.57;7.50;;;;;;;;;;5014205;28;20068;-70
2022/01/27 12:59:31;;;;;;;9.23;6.90;;;;;;;;;;5003605;28;20042;-70
2022/01/27 13:01:57;;;;;;;10.65;7.90;;;;;;;;;;4995085;28;20080;-70
2022/01/27 13:04:25;;;;;;;12.25;8.18;;;;;;;;;;5015418;28;20057;-70
2022/01/27 13:06:55;;;;;;;11.73;8.38;;;;;;;;;;5016199;28;20057;-70
2022/01/27 13:09:22;;;;;;;13.73;9.52;;;;;;;;;;5015643;28;20052;-70
2022/01/27 13:11:52;;;;;;;14.32;9.43;;;;;;;;;;5013839;28;20037;-70
2022/01/27 13:14:18;;;;;;;15.87;9.63;;;;;;;;;;5014265;28;20050;-70
2022/01/27 13:16:49;;;;;;;12.90;9.02;;;;;;;;;;5015034;28;20121;-70
2022/01/27 13:19:30;;;;;;;11.43;7.82;;;;;;;;;;5016123;28;20086;-70
2022/01/27 13:21:56;;;;;;;;;;;;;;;;;;5016907;28;20113;-70
2022/01/27 13:24:22;;;;;;;12.73;7.57;;;;;;;;;;5016417;28;20080;-70
2022/01/27 13:26:50;;;;;;;13.48;8.63;;;;;;;;;;5016015;28;20045;-70
2022/01/27 13:29:19;;;;;;;14.27;9.10;;;;;;;;;;5015796;28;20048;-70
2022/01/27 13:31:45;;;;;;;10.40;6.97;;;;;;;;;;5016205;28;20113;-70
2022/01/27 13:34:12;;;;;;;12.90;8.05;;;;;;;;;;5016009;28;20041;-70
2022/01/27 13:36:38;;;;;;;13.15;7.25;;;;;;;;;;5015920;28;20064;-70
2022/01/27 13:39:23;;;;;;;10.73;7.13;;;;;;;;;;5015209;28;20063;-70
2022/01/27 13:41:50;;;;;;;9.60;7.45;;;;;;;;;;5016185;28;20129;-70
2022/01/27 13:44:17;;;;;;;12.57;7.65;;;;;;;;;;5006634;28;20109;-70
2022/01/27 13:46:55;;;;;;;14.75;8.00;;;;;;;;;;4996365;28;20042;-70
2022/01/27 13:49:31;;;;;;;12.77;8.48;;;;;;;;;;4995638;28;20085;-70
2022/01/27 13:52:04;;;;;;;13.25;8.57;;;;;;;;;;4996451;28;20100;-70
2022/01/27 13:54:30;;;;;;;11.38;7.60;;;;;;;;;;4996521;28;20121;-70
2022/01/27 13:57:02;;;;;;;12.38;8.98;;;;;;;;;;4996388;28;20100;-70
2022/01/27 13:59:40;;;;;;;12.63;8.52;;;;;;;;;;4995791;28;20045;-70
2022/01/27 14:02:20;;;;;;;13.82;8.82;;;;;;;;;;4995741;28;20038;-70
2022/01/27 14:04:50;;;;;;;16.90;11.75;;;;;;;;;;4995564;28;20591;-73
2022/01/27 14:07:35;;;;;;;11.60;8.80;;;;;;;;;;4995293;28;20049;-70
2022/01/27 14:10:20;;;;;;;13.52;9.05;;;;;;;;;;5008756;28;20046;-70
2022/01/27 14:12:47;;;;;;;10.75;7.45;;;;;;;;;;5013369;28;20088;-70
2022/01/27 14:15:26;;;;;;;12.93;8.35;;;;;;;;;;5012600;28;20080;-70
2022/01/27 14:17:59;;;;;;;16.58;9.65;;;;;;;;;;5012751;28;20108;-70
2022/01/27 14:20:26;;;;;;;13.18;8.20;;;;;;;;;;5012658;28;20034;-70
2022/01/27 14:23:03;;;;;;;10.85;8.40;;;;;;;;;;5013154;28;20036;-70
2022/01/27 14:25:46;;;;;;;12.23;8.45;;;;;;;;;;5014638;28;20049;-70
2022/01/27 14:28:12;;;;;;;13.93;8.48;;;;;;;;;;5014108;28;20033;-70
2022/01/27 14:30:39;;;;;;;13.77;9.20;;;;;;;;;;5011951;28;20061;-70
2022/01/27 14:33:05;;;;;;;13.35;8.88;;;;;;;;;;5013179;28;20025;-70
2022/01/27 14:35:32;;;;;;;12.55;9.05;;;;;;;;;;5012788;28;20130;-70
2022/01/27 14:37:58;;;;;;;14.57;9.52;;;;;;;;;;5013378;28;20570;-70
2022/01/27 14:40:25;;;;;;;14.00;8.93;;;;;;;;;;5012374;28;20041;-70
2022/01/27 14:42:52;;;;;;;11.98;8.23;;;;;;;;;;5011845;28;20041;-70
2022/01/27 14:45:19;;;;;;;13.90;9.48;;;;;;;;;;5014389;28;20073;-70
2022/01/27 14:47:46;;;;;;;14.75;9.93;;;;;;;;;;5014741;28;20038;-70
2022/01/27 14:50:13;;;;;;;12.50;9.18;;;;;;;;;;5013843;28;20073;-70